createdAt,value
2017-08-31T00:01:05.348Z,96.40
2017-08-31T00:03:32.861Z,96.30
2017-08-31T00:06:00.391Z,96.00
2017-08-31T00:08:27.906Z,95.80
2017-08-31T00:10:55.428Z,95.80
2017-08-31T00:13:22.982Z,95.40
2017-08-31T00:15:50.565Z,95.40
2017-08-31T00:18:18.068Z,95.50
2017-08-31T00:20:45.596Z,95.70
2017-08-31T00:23:13.114Z,96.00
2017-08-31T00:25:40.635Z,96.60
2017-08-31T00:28:08.163Z,96.30
2017-08-31T00:30:35.683Z,96.70
2017-08-31T00:33:03.277Z,97.00
2017-08-31T00:35:30.830Z,97.20
2017-08-31T00:37:58.347Z,97.30
2017-08-31T00:40:26.726Z,97.40
2017-08-31T00:42:54.274Z,97.40
2017-08-31T00:45:21.794Z,97.40
2017-08-31T00:47:49.316Z,97.60
2017-08-31T00:50:16.862Z,97.70
2017-08-31T00:52:44.386Z,97.50
2017-08-31T00:55:11.921Z,97.70
2017-08-31T00:57:39.470Z,97.70
2017-08-31T01:00:06.995Z,97.50
2017-08-31T01:02:34.500Z,97.80
2017-08-31T01:05:02.054Z,97.40
2017-08-31T01:07:29.574Z,97.30
2017-08-31T01:09:57.843Z,97.20
2017-08-31T01:12:25.375Z,97.10
2017-08-31T01:14:52.876Z,97.60
2017-08-31T01:17:20.394Z,97.30
2017-08-31T01:19:47.943Z,97.60
2017-08-31T01:22:15.466Z,98.20
2017-08-31T01:24:42.986Z,98.70
2017-08-31T01:27:10.515Z,99.10
2017-08-31T01:29:38.035Z,99.30
2017-08-31T01:32:05.540Z,99.70
2017-08-31T01:34:33.086Z,99.90
2017-08-31T01:37:00.632Z,99.90
2017-08-31T01:39:28.136Z,99.90
2017-08-31T01:41:55.667Z,99.90
2017-08-31T01:44:23.182Z,99.90
2017-08-31T01:46:50.683Z,99.90
2017-08-31T01:49:18.216Z,99.90
2017-08-31T01:51:45.739Z,99.90
2017-08-31T01:54:13.339Z,99.90
2017-08-31T01:56:40.881Z,99.90
2017-08-31T01:59:08.389Z,99.90
2017-08-31T02:01:36.030Z,99.90
2017-08-31T02:06:37.193Z,99.90
2017-08-31T02:09:04.705Z,99.90
2017-08-31T02:11:32.980Z,99.90
2017-08-31T02:14:00.514Z,99.90
2017-08-31T02:16:28.038Z,99.90
2017-08-31T02:18:55.540Z,99.90
2017-08-31T02:21:23.072Z,99.90
2017-08-31T02:23:50.708Z,99.90
2017-08-31T02:26:18.224Z,99.90
2017-08-31T02:28:45.824Z,99.90
2017-08-31T02:31:13.344Z,99.90
2017-08-31T02:33:40.856Z,99.90
2017-08-31T02:36:08.406Z,99.80
2017-08-31T02:38:36.698Z,99.90
2017-08-31T02:41:04.209Z,99.90
2017-08-31T02:43:31.744Z,99.90
2017-08-31T02:45:59.274Z,99.90
2017-08-31T02:48:26.793Z,99.70
2017-08-31T02:50:54.346Z,99.40
2017-08-31T02:53:21.858Z,99.80
2017-08-31T02:55:49.354Z,99.30
2017-08-31T02:58:16.902Z,99.30
2017-08-31T03:00:44.422Z,99.40
2017-08-31T03:03:11.928Z,99.40
2017-08-31T03:05:39.460Z,99.80
2017-08-31T03:08:06.960Z,99.70
2017-08-31T03:10:34.469Z,99.90
2017-08-31T03:13:02.223Z,99.70
2017-08-31T03:15:29.777Z,99.80
2017-08-31T03:17:57.294Z,99.80
2017-08-31T03:20:24.836Z,99.80
2017-08-31T03:22:52.350Z,99.90
2017-08-31T03:25:19.851Z,99.90
2017-08-31T03:27:47.398Z,99.90
2017-08-31T03:30:14.925Z,99.90
2017-08-31T03:32:42.427Z,99.90
2017-08-31T03:35:09.959Z,99.90
2017-08-31T03:37:37.478Z,99.90
2017-08-31T03:40:05.001Z,99.90
2017-08-31T03:42:32.547Z,99.90
2017-08-31T03:45:00.056Z,99.90
2017-08-31T03:47:28.356Z,99.90
2017-08-31T03:49:55.888Z,99.90
2017-08-31T03:52:24.165Z,99.90
2017-08-31T03:54:51.842Z,99.90
2017-08-31T03:57:19.395Z,99.90
2017-08-31T03:59:46.903Z,99.90
2017-08-31T04:02:14.411Z,99.90
2017-08-31T04:04:41.962Z,99.90
2017-08-31T04:07:09.463Z,99.90
2017-08-31T04:09:36.981Z,99.90
2017-08-31T04:12:04.663Z,99.90
2017-08-31T04:14:32.163Z,99.90
2017-08-31T04:16:59.683Z,99.90
2017-08-31T04:19:27.235Z,99.90
2017-08-31T04:21:54.744Z,99.90
2017-08-31T04:24:22.247Z,99.90
2017-08-31T04:26:49.784Z,99.90
2017-08-31T04:29:18.070Z,99.90
2017-08-31T04:31:45.576Z,99.90
2017-08-31T04:34:13.112Z,99.90
2017-08-31T04:36:40.624Z,99.90
2017-08-31T04:39:08.923Z,99.90
2017-08-31T04:41:36.472Z,99.90
2017-08-31T04:44:04.740Z,99.90
2017-08-31T04:46:33.051Z,99.90
2017-08-31T04:49:00.584Z,99.90
2017-08-31T04:51:28.860Z,99.90
2017-08-31T04:53:57.151Z,99.90
2017-08-31T04:56:24.699Z,99.90
2017-08-31T04:58:52.236Z,99.90
2017-08-31T05:01:19.750Z,99.90
2017-08-31T05:03:47.294Z,99.90
2017-08-31T05:06:14.810Z,99.90
2017-08-31T05:08:42.312Z,99.90
2017-08-31T05:11:09.858Z,99.90
2017-08-31T05:13:37.373Z,99.90
2017-08-31T05:16:04.885Z,99.90
2017-08-31T05:18:32.442Z,99.90
2017-08-31T05:20:59.975Z,99.80
2017-08-31T05:23:27.484Z,99.70
2017-08-31T05:25:55.017Z,99.90
2017-08-31T05:28:22.521Z,99.90
2017-08-31T05:30:50.038Z,99.90
2017-08-31T05:33:17.591Z,99.90
2017-08-31T05:35:45.110Z,99.90
2017-08-31T05:38:12.616Z,99.90
2017-08-31T05:40:40.144Z,99.90
2017-08-31T05:43:07.657Z,99.90
2017-08-31T05:45:35.169Z,99.90
2017-08-31T05:48:02.699Z,99.90
2017-08-31T05:50:30.210Z,99.90
2017-08-31T05:52:57.707Z,99.90
2017-08-31T05:55:25.322Z,99.90
2017-08-31T05:57:52.843Z,99.90
2017-08-31T06:00:21.203Z,99.90
2017-08-31T06:02:48.818Z,99.90
2017-08-31T06:05:16.320Z,99.90
2017-08-31T06:07:43.941Z,99.90
2017-08-31T06:10:11.482Z,99.90
2017-08-31T06:12:38.988Z,99.90
2017-08-31T06:15:06.492Z,99.90
2017-08-31T06:17:34.015Z,99.90
2017-08-31T06:20:01.538Z,99.90
2017-08-31T06:22:29.056Z,99.90
2017-08-31T06:24:56.646Z,99.90
2017-08-31T06:27:24.162Z,99.90
2017-08-31T06:29:51.667Z,99.90
2017-08-31T06:32:19.210Z,99.90
2017-08-31T06:34:46.722Z,99.90
2017-08-31T06:37:14.237Z,99.90
2017-08-31T06:39:41.760Z,99.70
2017-08-31T06:42:09.356Z,99.90
2017-08-31T06:44:36.860Z,99.90
2017-08-31T06:47:04.387Z,99.90
2017-08-31T06:49:31.902Z,99.80
2017-08-31T06:51:59.400Z,99.40
2017-08-31T06:54:27.051Z,99.60
2017-08-31T06:56:54.551Z,99.60
2017-08-31T06:59:22.168Z,99.70
2017-08-31T07:01:49.719Z,99.70
2017-08-31T07:04:17.234Z,99.80
2017-08-31T07:06:44.740Z,99.90
2017-08-31T07:09:13.101Z,99.40
2017-08-31T07:11:40.685Z,99.40
2017-08-31T07:14:08.193Z,99.60
2017-08-31T07:16:35.737Z,99.90
2017-08-31T07:19:03.231Z,99.90
2017-08-31T07:21:31.488Z,99.90
2017-08-31T07:23:59.093Z,99.90
2017-08-31T07:26:26.591Z,99.70
2017-08-31T07:28:54.105Z,99.70
2017-08-31T07:31:21.642Z,99.90
2017-08-31T07:33:49.148Z,99.90
2017-08-31T07:36:16.659Z,99.40
2017-08-31T07:38:44.203Z,99.80
2017-08-31T07:41:11.700Z,99.90
2017-08-31T07:43:39.199Z,99.90
2017-08-31T07:46:06.723Z,99.90
2017-08-31T07:48:34.230Z,99.70
2017-08-31T07:51:01.732Z,99.60
2017-08-31T07:53:29.278Z,99.90
2017-08-31T07:55:56.787Z,99.80
2017-08-31T07:58:24.305Z,99.70
2017-08-31T08:00:51.850Z,99.40
2017-08-31T08:03:19.358Z,99.50
2017-08-31T08:05:46.869Z,99.60
2017-08-31T08:08:16.009Z,99.70
2017-08-31T08:10:43.532Z,99.90
2017-08-31T08:13:11.032Z,99.90
2017-08-31T08:15:38.574Z,99.90
2017-08-31T08:18:06.073Z,99.70
2017-08-31T08:20:33.590Z,99.50
2017-08-31T08:23:01.112Z,99.40
2017-08-31T08:25:28.620Z,98.60
2017-08-31T08:27:56.149Z,99.00
2017-08-31T08:30:23.684Z,98.40
2017-08-31T08:32:51.176Z,98.80
2017-08-31T08:35:18.690Z,98.90
2017-08-31T08:37:46.216Z,98.30
2017-08-31T08:40:13.734Z,98.20
2017-08-31T08:42:41.252Z,98.50
2017-08-31T08:45:09.561Z,98.10
2017-08-31T08:47:37.080Z,98.10
2017-08-31T08:50:04.580Z,98.50
2017-08-31T08:52:32.118Z,98.10
2017-08-31T08:54:59.611Z,97.90
2017-08-31T08:57:27.119Z,97.10
2017-08-31T08:59:54.658Z,97.10
2017-08-31T09:02:22.148Z,97.60
2017-08-31T09:04:49.690Z,96.90
2017-08-31T09:07:17.995Z,96.00
2017-08-31T09:09:45.609Z,96.00
2017-08-31T09:12:13.122Z,95.40
2017-08-31T09:14:40.647Z,95.60
2017-08-31T09:17:08.162Z,95.70
2017-08-31T09:19:35.674Z,94.70
2017-08-31T09:22:03.972Z,95.60
2017-08-31T09:24:31.490Z,95.60
2017-08-31T09:26:58.992Z,94.80
2017-08-31T09:29:26.515Z,94.80
2017-08-31T09:31:54.039Z,95.60
2017-08-31T09:34:21.532Z,95.60
2017-08-31T09:36:49.074Z,94.40
2017-08-31T09:39:16.573Z,94.50
2017-08-31T09:41:44.095Z,94.00
2017-08-31T09:44:11.706Z,94.10
2017-08-31T09:46:39.204Z,94.00
2017-08-31T09:49:06.722Z,94.30
2017-08-31T09:51:34.251Z,94.60
2017-08-31T09:54:02.507Z,94.20
2017-08-31T09:56:30.115Z,94.20
2017-08-31T09:58:57.635Z,94.00
2017-08-31T10:01:25.140Z,92.90
2017-08-31T10:03:52.639Z,91.60
2017-08-31T10:06:20.187Z,91.40
2017-08-31T10:08:47.679Z,91.10
2017-08-31T10:11:15.190Z,91.70
2017-08-31T10:13:42.716Z,91.70
2017-08-31T10:16:10.239Z,92.10
2017-08-31T10:18:37.756Z,91.90
2017-08-31T10:21:05.280Z,91.30
2017-08-31T10:23:32.789Z,88.00
2017-08-31T10:26:00.279Z,88.40
2017-08-31T10:28:27.822Z,86.60
2017-08-31T10:30:55.329Z,84.50
2017-08-31T10:33:22.847Z,87.20
2017-08-31T10:35:50.398Z,85.20
2017-08-31T10:38:17.912Z,84.80
2017-08-31T10:40:45.435Z,83.20
2017-08-31T10:43:12.964Z,85.40
2017-08-31T10:45:40.464Z,80.80
2017-08-31T10:48:07.955Z,76.80
2017-08-31T10:50:35.482Z,74.00
2017-08-31T10:53:02.997Z,74.00
2017-08-31T10:55:30.562Z,72.10
2017-08-31T10:57:58.084Z,73.40
2017-08-31T11:00:26.186Z,74.10
2017-08-31T11:02:53.704Z,72.60
2017-08-31T11:05:21.261Z,74.10
2017-08-31T11:07:48.775Z,77.30
2017-08-31T11:10:16.286Z,75.80
2017-08-31T11:12:43.803Z,75.90
2017-08-31T11:15:12.085Z,78.60
2017-08-31T11:17:39.584Z,78.60
2017-08-31T11:20:07.141Z,78.80
2017-08-31T11:22:34.640Z,81.10
2017-08-31T11:25:02.141Z,82.80
2017-08-31T11:27:29.778Z,83.80
2017-08-31T11:29:57.372Z,83.20
2017-08-31T11:32:24.857Z,84.30
2017-08-31T11:34:52.411Z,88.20
2017-08-31T11:37:19.994Z,86.50
2017-08-31T11:39:48.177Z,83.60
2017-08-31T11:42:15.695Z,83.50
2017-08-31T11:44:43.199Z,81.50
2017-08-31T11:47:10.795Z,80.90
2017-08-31T11:49:38.352Z,80.40
2017-08-31T11:52:05.919Z,77.30
2017-08-31T11:54:33.475Z,72.10
2017-08-31T11:57:01.014Z,72.20
2017-08-31T11:59:28.520Z,76.30
2017-08-31T12:01:56.016Z,78.80
2017-08-31T12:04:23.558Z,84.70
2017-08-31T12:06:51.046Z,86.80
2017-08-31T12:09:18.565Z,91.10
2017-08-31T12:11:46.095Z,90.50
2017-08-31T12:14:13.610Z,91.10
2017-08-31T12:16:41.099Z,91.30
2017-08-31T12:19:08.637Z,92.50
2017-08-31T12:21:36.147Z,92.70
2017-08-31T12:24:03.648Z,92.70
2017-08-31T12:26:31.194Z,92.40
2017-08-31T12:28:58.707Z,91.20
2017-08-31T12:31:26.216Z,90.90
2017-08-31T12:33:53.765Z,90.80
2017-08-31T12:36:22.028Z,90.00
2017-08-31T12:38:49.562Z,90.00
2017-08-31T12:41:17.102Z,90.00
2017-08-31T12:43:44.600Z,90.50
2017-08-31T12:46:12.111Z,91.00
2017-08-31T12:48:39.639Z,90.10
2017-08-31T12:51:07.136Z,90.10
2017-08-31T12:53:34.646Z,89.90
2017-08-31T12:56:02.171Z,87.60
2017-08-31T12:58:29.687Z,86.70
2017-08-31T13:00:57.185Z,88.00
2017-08-31T13:03:24.731Z,89.90
2017-08-31T13:05:52.231Z,90.20
2017-08-31T13:08:19.746Z,90.20
2017-08-31T13:10:47.277Z,91.40
2017-08-31T13:13:14.875Z,92.50
2017-08-31T13:15:42.367Z,92.20
2017-08-31T13:18:09.896Z,91.70
2017-08-31T13:20:37.414Z,92.50
2017-08-31T13:23:04.912Z,92.40
2017-08-31T13:25:32.444Z,93.00
2017-08-31T13:27:59.935Z,92.90
2017-08-31T13:30:27.446Z,92.60
2017-08-31T13:32:54.971Z,93.30
2017-08-31T13:35:22.469Z,93.20
2017-08-31T13:37:49.967Z,93.80
2017-08-31T13:40:17.500Z,93.40
2017-08-31T13:42:45.000Z,92.80
2017-08-31T13:45:12.501Z,92.60
2017-08-31T13:47:40.024Z,92.10
2017-08-31T13:50:07.543Z,92.50
2017-08-31T13:52:35.065Z,92.40
2017-08-31T13:55:02.583Z,91.60
2017-08-31T13:57:30.202Z,86.80
2017-08-31T13:59:57.714Z,84.90
2017-08-31T14:02:25.253Z,85.90
2017-08-31T14:04:52.761Z,83.90
2017-08-31T14:07:20.269Z,83.80
2017-08-31T14:09:47.811Z,86.90
2017-08-31T14:12:15.326Z,89.20
2017-08-31T14:14:42.910Z,90.00
2017-08-31T14:17:10.452Z,90.20
2017-08-31T14:19:37.979Z,91.20
2017-08-31T14:22:05.476Z,91.40
2017-08-31T14:24:32.997Z,91.50
2017-08-31T14:27:00.606Z,91.70
2017-08-31T14:29:28.124Z,91.50
2017-08-31T14:31:55.667Z,91.20
2017-08-31T14:34:23.159Z,91.00
2017-08-31T14:36:50.678Z,90.50
2017-08-31T14:39:18.219Z,90.20
2017-08-31T14:41:45.723Z,90.00
2017-08-31T14:44:14.002Z,89.10
2017-08-31T14:46:41.538Z,89.10
2017-08-31T14:49:09.028Z,84.30
2017-08-31T14:51:36.528Z,87.30
2017-08-31T14:54:04.069Z,83.20
2017-08-31T14:56:31.568Z,83.80
2017-08-31T14:58:59.082Z,79.50
2017-08-31T15:01:26.625Z,73.40
2017-08-31T15:03:54.142Z,70.70
2017-08-31T15:06:21.687Z,66.20
2017-08-31T15:08:49.243Z,69.40
2017-08-31T15:11:16.740Z,68.40
2017-08-31T15:13:44.241Z,67.60
2017-08-31T15:16:11.807Z,68.40
2017-08-31T15:18:39.379Z,69.20
2017-08-31T15:21:06.890Z,71.90
2017-08-31T15:23:34.500Z,74.30
2017-08-31T15:26:02.015Z,73.70
2017-08-31T15:28:29.516Z,75.80
2017-08-31T15:30:57.044Z,75.50
2017-08-31T15:33:24.535Z,76.30
2017-08-31T15:35:52.028Z,75.00
2017-08-31T15:38:19.566Z,79.30
2017-08-31T15:40:47.064Z,79.10
2017-08-31T15:43:14.573Z,81.40
2017-08-31T15:45:42.100Z,82.50
2017-08-31T15:48:09.600Z,84.40
2017-08-31T15:50:37.106Z,86.20
2017-08-31T15:53:05.005Z,86.30
2017-08-31T15:55:32.506Z,86.60
2017-08-31T15:58:00.018Z,87.00
2017-08-31T16:00:27.544Z,86.40
2017-08-31T16:02:55.039Z,86.40
2017-08-31T16:05:22.555Z,87.20
2017-08-31T16:07:50.106Z,86.70
2017-08-31T16:10:17.614Z,87.80
2017-08-31T16:12:45.126Z,86.40
2017-08-31T16:15:12.651Z,87.00
2017-08-31T16:17:40.157Z,86.70
2017-08-31T16:20:07.664Z,87.20
2017-08-31T16:22:35.192Z,87.00
2017-08-31T16:25:02.692Z,85.90
2017-08-31T16:27:30.202Z,85.10
2017-08-31T16:29:57.737Z,86.30
2017-08-31T16:32:25.335Z,84.30
2017-08-31T16:34:52.832Z,85.10
2017-08-31T16:37:20.453Z,82.80
2017-08-31T16:39:47.950Z,84.70
2017-08-31T16:42:15.443Z,79.00
2017-08-31T16:44:42.976Z,77.40
2017-08-31T16:47:10.499Z,75.20
2017-08-31T16:49:37.991Z,74.30
2017-08-31T16:52:05.527Z,73.80
2017-08-31T16:54:33.028Z,72.30
2017-08-31T16:57:00.541Z,74.40
2017-08-31T16:59:28.059Z,72.80
2017-08-31T17:01:55.569Z,73.60
2017-08-31T17:04:23.064Z,75.10
2017-08-31T17:06:50.602Z,74.70
2017-08-31T17:09:18.118Z,76.10
2017-08-31T17:11:45.630Z,74.80
2017-08-31T17:14:13.160Z,74.80
2017-08-31T17:16:40.668Z,76.80
2017-08-31T17:19:08.173Z,75.30
2017-08-31T17:21:35.718Z,74.90
2017-08-31T17:24:03.228Z,76.50
2017-08-31T17:26:30.732Z,77.00
2017-08-31T17:28:58.380Z,77.80
2017-08-31T17:31:25.894Z,78.80
2017-08-31T17:33:53.410Z,79.40
2017-08-31T17:36:20.955Z,80.40
2017-08-31T17:38:48.512Z,81.40
2017-08-31T17:41:16.013Z,82.50
2017-08-31T17:43:43.539Z,82.70
2017-08-31T17:46:11.051Z,83.70
2017-08-31T17:48:38.570Z,84.10
2017-08-31T17:51:06.112Z,85.60
2017-08-31T17:53:33.615Z,87.30
2017-08-31T17:56:01.129Z,89.40
2017-08-31T17:58:28.652Z,89.40
2017-08-31T18:00:56.917Z,90.10
2017-08-31T18:03:24.513Z,90.10
2017-08-31T18:05:52.036Z,90.30
2017-08-31T18:08:19.528Z,90.70
2017-08-31T18:10:47.027Z,90.10
2017-08-31T18:13:14.556Z,90.10
2017-08-31T18:15:42.051Z,90.20
2017-08-31T18:18:09.551Z,91.00
2017-08-31T18:20:37.076Z,90.90
2017-08-31T18:23:04.590Z,91.30
2017-08-31T18:25:32.079Z,91.70
2017-08-31T18:27:59.608Z,91.80
2017-08-31T18:30:27.124Z,91.80
2017-08-31T18:32:54.638Z,91.80
2017-08-31T18:35:22.165Z,91.90
2017-08-31T18:37:49.727Z,91.90
2017-08-31T18:40:17.226Z,92.30
2017-08-31T18:42:44.846Z,92.60
2017-08-31T18:45:12.354Z,92.90
2017-08-31T18:47:39.865Z,93.40
2017-08-31T18:50:07.402Z,93.60
2017-08-31T18:52:34.904Z,93.90
2017-08-31T18:55:02.400Z,94.20
2017-08-31T18:57:29.937Z,94.60
2017-08-31T18:59:57.460Z,94.80
2017-08-31T19:02:25.088Z,94.90
2017-08-31T19:04:52.630Z,95.20
2017-08-31T19:07:20.141Z,95.30
2017-08-31T19:09:47.654Z,95.50
2017-08-31T19:12:15.198Z,95.70
2017-08-31T19:14:42.715Z,95.90
2017-08-31T19:17:10.276Z,96.00
2017-08-31T19:19:37.819Z,96.00
2017-08-31T19:22:05.324Z,96.10
2017-08-31T19:24:32.819Z,96.20
2017-08-31T19:27:01.130Z,96.20
2017-08-31T19:29:28.680Z,96.10
2017-08-31T19:31:56.198Z,95.90
2017-08-31T19:34:23.746Z,95.90
2017-08-31T19:36:51.259Z,96.10
2017-08-31T19:39:18.767Z,96.00
2017-08-31T19:41:46.313Z,96.00
2017-08-31T19:44:13.826Z,96.00
2017-08-31T19:46:41.388Z,95.90
2017-08-31T19:49:08.920Z,96.00
2017-08-31T19:51:36.454Z,96.20
2017-08-31T19:54:03.951Z,96.10
2017-08-31T19:56:31.507Z,96.20
2017-08-31T19:58:59.015Z,96.50
2017-08-31T20:01:26.516Z,96.70
2017-08-31T20:03:54.054Z,96.80
2017-08-31T20:06:21.578Z,96.90
2017-08-31T20:08:49.101Z,96.90
2017-08-31T20:11:16.650Z,97.00
2017-08-31T20:13:44.195Z,97.00
2017-08-31T20:16:11.719Z,97.20
2017-08-31T20:18:39.258Z,97.30
2017-08-31T20:21:06.787Z,97.60
2017-08-31T20:23:34.309Z,97.50
2017-08-31T20:26:01.843Z,97.50
2017-08-31T20:28:29.352Z,97.50
2017-08-31T20:30:56.873Z,97.40
2017-08-31T20:33:24.418Z,97.30
2017-08-31T20:35:51.938Z,97.60
2017-08-31T20:38:19.464Z,97.70
2017-08-31T20:40:47.009Z,97.60
2017-08-31T20:43:14.529Z,97.70
2017-08-31T20:45:42.031Z,97.80
2017-08-31T20:48:09.577Z,98.00
2017-08-31T20:50:37.098Z,97.80
2017-08-31T20:53:04.618Z,97.80
2017-08-31T20:55:32.166Z,97.70
2017-08-31T20:57:59.675Z,97.70
2017-08-31T21:00:27.198Z,97.80
2017-08-31T21:02:54.746Z,97.80
2017-08-31T21:05:22.308Z,97.80
2017-08-31T21:07:49.830Z,98.20
2017-08-31T21:10:17.363Z,98.10
2017-08-31T21:12:46.369Z,98.10
2017-08-31T21:15:13.894Z,98.10
2017-08-31T21:17:41.423Z,98.10
2017-08-31T21:20:08.946Z,98.00
2017-08-31T21:22:36.465Z,98.00
2017-08-31T21:25:04.014Z,98.10
2017-08-31T21:27:31.516Z,98.40
2017-08-31T21:29:59.041Z,98.40
2017-08-31T21:32:26.585Z,98.50
2017-08-31T21:34:54.111Z,98.50
2017-08-31T21:37:21.661Z,98.30
2017-08-31T21:39:49.185Z,98.10
2017-08-31T21:42:16.705Z,98.10
2017-08-31T21:44:44.236Z,98.30
2017-08-31T21:47:11.739Z,98.10
2017-08-31T21:49:39.254Z,98.10
2017-08-31T21:52:06.802Z,98.00
2017-08-31T21:54:34.326Z,97.80
2017-08-31T21:57:01.870Z,97.80
2017-08-31T21:59:29.380Z,97.60
2017-08-31T22:01:56.912Z,97.60
2017-08-31T22:04:24.420Z,97.60
2017-08-31T22:06:51.924Z,97.50
2017-08-31T22:09:19.460Z,97.60
2017-08-31T22:11:46.986Z,97.50
2017-08-31T22:14:15.270Z,97.60
2017-08-31T22:16:43.674Z,97.60
2017-08-31T22:19:11.956Z,97.60
2017-08-31T22:21:39.459Z,97.60
2017-08-31T22:24:07.007Z,97.70
2017-08-31T22:26:34.534Z,98.30
2017-08-31T22:29:02.037Z,98.60
2017-08-31T22:31:29.575Z,98.90
2017-08-31T22:33:57.080Z,98.80
2017-08-31T22:36:24.602Z,98.70
2017-08-31T22:38:52.135Z,98.90
2017-08-31T22:41:19.651Z,99.10
2017-08-31T22:43:47.172Z,99.20
2017-08-31T22:46:14.731Z,99.00
2017-08-31T22:48:42.254Z,98.70
2017-08-31T22:51:09.755Z,98.40
2017-08-31T22:53:37.280Z,98.10
2017-08-31T22:56:04.802Z,98.00
2017-08-31T22:58:43.191Z,97.90
2017-08-31T23:01:10.801Z,97.90
2017-08-31T23:03:38.308Z,98.30
2017-08-31T23:06:05.836Z,97.90
2017-08-31T23:08:33.361Z,98.00
2017-08-31T23:11:00.891Z,97.80
2017-08-31T23:13:28.422Z,97.60
2017-08-31T23:15:55.928Z,97.70
2017-08-31T23:18:23.506Z,97.80
2017-08-31T23:20:51.024Z,97.90
2017-08-31T23:23:18.560Z,98.10
2017-08-31T23:25:46.092Z,98.30
2017-08-31T23:28:13.642Z,98.40
2017-08-31T23:30:41.162Z,98.50
2017-08-31T23:33:08.682Z,98.60
2017-08-31T23:35:36.320Z,98.70
2017-08-31T23:38:03.846Z,98.90
2017-08-31T23:40:32.166Z,99.10
2017-08-31T23:42:59.712Z,99.10
2017-08-31T23:45:27.233Z,99.20
2017-08-31T23:47:55.532Z,99.70
2017-08-31T23:50:23.061Z,99.70
2017-08-31T23:52:50.563Z,99.80
2017-08-31T23:55:18.090Z,99.90
2017-08-31T23:57:46.373Z,99.90
